Time;durP1;ratioP1;P1;durP2;ratioP2;P2;SDS_P1;SDS_P2;PMS_P1;PMS_P2;Temp;Humidity;BMP_temperature;BMP_pressure;BME280_temperature;BME280_humidity;BME280_pressure;Samples;Min_cycle;Max_cycle;Signal;HPM_P1;HPM_P2
2022/07/07 00:02:01;;;;;;;5.43;4.90;;;;;;;16.47;78.82;98745.00;4127194;28;20658;-90
2022/07/07 00:04:04;;;;;;;7.97;5.30;;;;;;;16.46;79.73;98738.03;4111557;28;20680;-90
2022/07/07 00:06:07;;;;;;;5.03;4.63;;;;;;;16.48;78.39;98745.81;4110753;28;20670;-90
2022/07/07 00:08:11;;;;;;;5.57;4.53;;;;;;;16.46;79.09;98735.41;4109037;28;20652;-89
2022/07/07 00:10:15;;;;;;;5.30;4.80;;;;;;;16.45;79.51;98741.66;4126039;28;21007;-91
2022/07/07 00:12:18;;;;;;;5.07;4.63;;;;;;;16.45;76.90;98751.34;4126697;28;20633;-90
2022/07/07 00:14:21;;;;;;;4.90;4.20;;;;;;;16.43;77.79;98745.38;4124945;28;20647;-90
2022/07/07 00:16:24;;;;;;;8.90;5.40;;;;;;;16.45;78.66;98738.16;4108775;28;20644;-91
2022/07/07 00:18:28;;;;;;;7.10;5.47;;;;;;;16.46;78.91;98740.69;4094660;28;20632;-90
2022/07/07 00:20:54;;;;;;;5.47;4.90;;;;;;;16.47;79.31;98742.38;4102640;28;20698;-91
2022/07/07 00:22:57;;;;;;;5.93;5.27;;;;;;;16.47;78.87;98737.09;4115131;28;20648;-90
2022/07/07 00:25:00;;;;;;;7.03;4.80;;;;;;;16.49;79.29;98739.59;4109874;28;20648;-90
2022/07/07 00:27:05;;;;;;;5.43;4.93;;;;;;;16.49;79.51;98736.97;4110877;28;20627;-90
2022/07/07 00:29:08;;;;;;;5.50;5.00;;;;;;;16.48;77.68;98736.16;4108386;28;20639;-90
2022/07/07 00:31:11;;;;;;;5.80;4.80;;;;;;;16.47;78.33;98739.72;4129173;28;20646;-91
2022/07/07 00:33:15;;;;;;;5.70;5.03;;;;;;;16.46;77.89;98734.59;4095935;29;20641;-91
2022/07/07 00:35:18;;;;;;;5.80;5.30;;;;;;;16.42;79.01;98736.63;4112209;28;20671;-90
2022/07/07 00:37:22;;;;;;;7.53;5.40;;;;;;;16.42;77.80;98727.88;4128418;28;20693;-90
2022/07/07 00:39:25;;;;;;;5.70;5.10;;;;;;;16.41;80.33;98732.31;4110567;28;20682;-91
2022/07/07 00:41:28;;;;;;;5.80;4.87;;;;;;;16.42;79.70;98735.78;4111506;28;20645;-90
2022/07/07 00:43:37;;;;;;;5.70;5.10;;;;;;;16.43;79.91;98732.19;4111739;28;20648;-90
2022/07/07 00:45:46;;;;;;;5.90;5.30;;;;;;;16.43;80.24;98733.03;4127161;28;20643;-90
2022/07/07 00:47:49;;;;;;;5.97;5.37;;;;;;;16.44;78.10;98731.25;4126904;28;21206;-91
2022/07/07 00:49:53;;;;;;;5.13;4.70;;;;;;;16.42;79.37;98725.25;4128506;28;20663;-91
2022/07/07 00:51:56;;;;;;;5.37;4.83;;;;;;;16.42;79.04;98722.63;4112322;28;20712;-90
2022/07/07 00:53:59;;;;;;;5.73;5.23;;;;;;;16.40;80.90;98724.56;4112991;28;21222;-90
2022/07/07 00:56:02;;;;;;;5.80;5.20;;;;;;;16.39;81.81;98720.22;4109481;28;20654;-90
2022/07/07 00:58:05;;;;;;;5.73;5.23;;;;;;;16.39;81.89;98714.97;4124974;28;20713;-90
2022/07/07 01:00:15;;;;;;;6.30;5.50;;;;;;;16.38;79.96;98722.03;4111203;28;21292;-90
2022/07/07 01:02:18;;;;;;;6.73;5.00;;;;;;;16.38;80.49;98723.84;4126483;28;20761;-90
2022/07/07 01:04:21;;;;;;;7.07;5.17;;;;;;;16.38;80.50;98723.84;4123738;28;20626;-90
2022/07/07 01:06:25;;;;;;;4.90;4.43;;;;;;;16.42;78.98;98712.09;4127516;28;20662;-90
2022/07/07 01:08:28;;;;;;;6.43;4.90;;;;;;;16.43;80.16;98716.41;4113834;28;20633;-91
2022/07/07 01:10:31;;;;;;;5.80;5.30;;;;;;;16.41;79.37;98715.69;4109965;28;20635;-90
2022/07/07 01:12:35;;;;;;;5.57;5.00;;;;;;;16.39;80.89;98714.97;4126700;28;20692;-90
2022/07/07 01:14:39;;;;;;;8.00;5.20;;;;;;;16.37;82.48;98714.25;4112043;28;20643;-90
2022/07/07 01:16:44;;;;;;;6.50;5.30;;;;;;;16.35;80.98;98710.94;4126748;28;20639;-90
2022/07/07 01:18:47;;;;;;;6.57;5.30;;;;;;;16.35;82.00;98705.66;4108676;28;20645;-90
2022/07/07 01:20:51;;;;;;;5.50;4.90;;;;;;;16.35;81.55;98703.03;4129155;28;20674;-91
2022/07/07 01:22:56;;;;;;;7.77;5.20;;;;;;;16.33;83.00;98705.78;4130048;28;20667;-91
2022/07/07 01:24:59;;;;;;;5.97;5.17;;;;;;;16.31;82.86;98704.22;4111320;28;20640;-91
2022/07/07 01:27:06;;;;;;;5.90;5.27;;;;;;;16.26;81.58;98701.16;4111486;28;21058;-89
2022/07/07 01:29:09;;;;;;;6.00;5.33;;;;;;;16.22;81.45;98703.19;4109029;28;21237;-91
2022/07/07 01:31:13;;;;;;;6.33;5.07;;;;;;;16.20;82.36;98709.50;4127122;28;20647;-91
2022/07/07 01:33:17;;;;;;;6.10;5.50;;;;;;;16.19;81.34;98697.28;4109067;28;20660;-90
2022/07/07 01:35:20;;;;;;;5.77;4.80;;;;;;;16.21;80.69;98700.66;4110665;28;20645;-90
2022/07/07 01:37:24;;;;;;;6.87;5.30;;;;;;;16.21;80.82;98696.22;4112693;28;20643;-91
2022/07/07 01:39:29;;;;;;;5.60;5.10;;;;;;;16.23;80.81;98694.31;4110201;28;20633;-90
2022/07/07 01:41:32;;;;;;;5.77;5.27;;;;;;;16.23;82.93;98694.31;4128115;28;20700;-91
2022/07/07 01:43:36;;;;;;;5.70;5.20;;;;;;;16.21;81.92;98688.31;4105576;28;21234;-91
2022/07/07 01:45:39;;;;;;;5.87;5.27;;;;;;;16.18;83.34;98690.38;4124608;28;20627;-91
2022/07/07 01:47:42;;;;;;;5.80;5.23;;;;;;;16.19;82.42;98687.63;4110144;28;20786;-90
2022/07/07 01:49:45;;;;;;;6.17;5.57;;;;;;;16.19;82.91;98684.13;4110796;28;20650;-90
2022/07/07 01:51:48;;;;;;;6.17;5.60;;;;;;;16.21;83.00;98682.22;4108534;28;21229;-90
2022/07/07 01:53:51;;;;;;;6.50;5.70;;;;;;;16.21;81.68;98675.16;4112793;28;20634;-89
2022/07/07 01:55:55;;;;;;;5.70;5.20;;;;;;;16.23;82.15;98667.16;4128415;28;20669;-90
2022/07/07 01:57:59;;;;;;;5.20;4.70;;;;;;;16.28;81.28;98673.75;4132197;28;20981;-90
2022/07/07 02:00:02;;;;;;;6.53;5.93;;;;;;;16.31;82.60;98667.38;4111432;28;21245;-90
2022/07/07 02:02:07;;;;;;;5.97;5.37;;;;;;;16.34;82.55;98675.03;4111985;28;21113;-91
2022/07/07 02:04:10;;;;;;;5.80;5.17;;;;;;;16.36;82.17;98673.13;4113259;28;20679;-91
2022/07/07 02:06:14;;;;;;;6.37;5.30;;;;;;;16.33;81.53;98673.38;4126344;28;20761;-90
2022/07/07 02:08:17;;;;;;;7.97;5.93;;;;;;;16.28;81.62;98667.63;4124433;28;20678;-90
2022/07/07 02:12:38;;;;;;;6.23;5.73;;;;;;;16.27;82.01;98663.34;4132900;28;20695;-91
2022/07/07 02:14:41;;;;;;;6.50;5.90;;;;;;;16.28;83.33;98662.34;4110411;28;20708;-90
2022/07/07 02:16:44;;;;;;;6.40;5.83;;;;;;;16.27;81.84;98672.06;4108853;28;20655;-90
2022/07/07 02:18:48;;;;;;;7.30;6.23;;;;;;;16.24;80.40;98666.22;4130094;28;20634;-91
2022/07/07 02:20:51;;;;;;;7.80;6.50;;;;;;;16.26;82.41;98677.44;4108547;28;20708;-91
2022/07/07 02:22:54;;;;;;;6.83;6.17;;;;;;;16.21;81.20;98669.91;4107883;28;20689;-90
2022/07/07 02:24:57;;;;;;;6.37;5.77;;;;;;;16.22;82.97;98678.66;4110444;28;20687;-89
2022/07/07 02:27:16;;;;;;;7.17;6.47;;;;;;;16.23;82.43;98677.69;4106783;28;21041;-91
2022/07/07 02:29:36;;;;;;;7.77;6.20;;;;;;;16.21;82.20;98669.06;4108985;28;20631;-91
2022/07/07 02:31:57;;;;;;;6.50;5.90;;;;;;;16.26;84.24;98677.44;4108865;28;20654;-90
2022/07/07 02:34:13;;;;;;;6.40;5.87;;;;;;;16.24;82.87;98666.22;4123050;28;20635;-91
2022/07/07 02:36:42;;;;;;;6.30;5.70;;;;;;;16.25;82.55;98670.50;4109494;28;20639;-91
2022/07/07 02:38:55;;;;;;;6.90;6.30;;;;;;;16.30;81.80;98673.63;4124371;28;20643;-90
2022/07/07 02:41:08;;;;;;;6.10;5.50;;;;;;;16.26;82.49;98665.13;4108562;28;20635;-91
2022/07/07 02:43:16;;;;;;;7.37;6.43;;;;;;;16.28;82.63;98678.16;4094922;28;20664;-91
2022/07/07 02:45:20;;;;;;;7.47;6.40;;;;;;;16.31;82.60;98680.53;4110063;28;21025;-91
2022/07/07 02:47:23;;;;;;;6.90;6.30;;;;;;;16.32;82.66;98683.03;4127418;28;20635;-90
2022/07/07 02:49:26;;;;;;;7.10;6.37;;;;;;;16.33;82.85;98686.53;4126376;28;20699;-91
2022/07/07 02:51:29;;;;;;;7.70;6.90;;;;;;;16.32;83.55;98683.03;4109081;28;20740;-91
2022/07/07 02:53:34;;;;;;;7.70;6.20;;;;;;;16.33;83.55;98686.53;4110301;28;21453;-91
2022/07/07 02:55:37;;;;;;;8.00;6.57;;;;;;;16.31;83.47;98686.66;4111182;28;20646;-91
2022/07/07 02:57:40;;;;;;;6.67;5.60;;;;;;;16.30;83.40;98676.25;4114460;28;20648;-90
2022/07/07 02:59:46;;;;;;;7.90;7.07;;;;;;;16.30;84.11;98681.53;4106070;28;20644;-91
2022/07/07 03:01:51;;;;;;;6.87;6.17;;;;;;;16.27;82.31;98689.66;4127484;28;20730;-92
2022/07/07 03:03:54;;;;;;;7.50;6.80;;;;;;;16.25;82.32;98681.03;4110753;28;20665;-91
2022/07/07 03:05:57;;;;;;;7.23;6.50;;;;;;;16.26;83.51;98672.19;4109862;28;20666;-92
2022/07/07 03:08:00;;;;;;;7.70;7.00;;;;;;;16.24;83.89;98671.50;4126175;28;20639;-91
2022/07/07 03:10:04;;;;;;;8.23;7.43;;;;;;;16.22;82.85;98666.34;4105393;28;21214;-90
2022/07/07 03:12:08;;;;;;;7.23;6.50;;;;;;;16.21;83.02;98669.06;4125989;28;20697;-91
2022/07/07 03:14:11;;;;;;;7.30;6.60;;;;;;;16.17;82.75;98667.63;4105647;28;20668;-91
2022/07/07 03:16:14;;;;;;;8.40;7.10;;;;;;;16.14;83.90;98668.72;4110393;28;20679;-91
2022/07/07 03:18:18;;;;;;;7.27;6.57;;;;;;;16.13;83.52;98663.56;4111220;28;20671;-91
2022/07/07 03:20:22;;;;;;;8.10;7.17;;;;;;;16.15;82.45;98661.69;4109424;28;20643;-91
2022/07/07 03:22:25;;;;;;;7.73;7.00;;;;;;;16.16;83.97;98664.19;4108933;28;20695;-91
2022/07/07 03:24:29;;;;;;;7.60;6.80;;;;;;;16.17;83.20;98657.09;4125559;28;20660;-90
2022/07/07 03:26:32;;;;;;;7.67;6.97;;;;;;;16.17;83.43;98655.31;4110281;28;20663;-91
2022/07/07 03:28:35;;;;;;;7.40;6.53;;;;;;;16.16;82.75;98650.16;4123279;28;20631;-91
2022/07/07 03:30:39;;;;;;;7.40;6.70;;;;;;;16.15;84.20;98648.50;4124053;28;20668;-90
2022/07/07 03:32:42;;;;;;;7.23;6.53;;;;;;;16.13;84.29;98650.41;4124270;28;20630;-91
2022/07/07 03:34:46;;;;;;;7.53;6.83;;;;;;;16.14;83.30;98646.81;4106590;28;20667;-91
2022/07/07 03:36:49;;;;;;;8.40;6.73;;;;;;;16.15;82.97;98635.34;4104969;28;21225;-90
2022/07/07 03:38:53;;;;;;;9.63;6.50;;;;;;;16.17;84.34;98630.78;4126102;28;20976;-90
2022/07/07 03:40:56;;;;;;;7.13;6.43;;;;;;;16.20;83.92;98625.28;4108385;28;20667;-90
2022/07/07 03:43:05;;;;;;;7.03;6.33;;;;;;;16.23;82.98;98622.41;4114380;28;20641;-90
2022/07/07 03:45:09;;;;;;;7.53;6.80;;;;;;;16.25;81.79;98618.72;4109899;28;20764;-91
2022/07/07 03:47:13;;;;;;;6.87;6.10;;;;;;;16.28;80.83;98614.97;4115262;28;20642;-91
2022/07/07 03:49:23;;;;;;;7.90;6.57;;;;;;;16.32;82.08;98626.94;4118470;28;21261;-90
2022/07/07 03:51:30;;;;;;;8.10;6.93;;;;;;;16.28;81.20;98630.75;4109743;28;20686;-91
2022/07/07 03:53:34;;;;;;;7.60;6.80;;;;;;;16.32;84.20;98634.81;4111978;28;20786;-91
2022/07/07 03:55:37;;;;;;;7.10;6.40;;;;;;;16.34;82.82;98638.16;4110728;28;20659;-91
2022/07/07 03:57:41;;;;;;;9.80;6.80;;;;;;;16.34;82.76;98641.66;4108203;28;21087;-91
2022/07/07 03:59:44;;;;;;;8.00;7.20;;;;;;;16.34;84.07;98638.16;4125745;28;21223;-90
2022/07/07 04:01:47;;;;;;;7.63;6.93;;;;;;;16.34;81.95;98643.44;4108968;28;21239;-90
2022/07/07 04:03:50;;;;;;;7.90;7.10;;;;;;;16.27;82.55;98643.09;4127176;28;20725;-90
2022/07/07 04:05:54;;;;;;;7.50;6.80;;;;;;;16.29;83.51;98646.44;4126695;28;20647;-91
2022/07/07 04:07:58;;;;;;;8.10;7.00;;;;;;;16.33;84.26;98641.78;4108738;28;21079;-90
2022/07/07 04:10:02;;;;;;;7.93;7.23;;;;;;;16.35;83.42;98642.47;4116127;28;20649;-91
2022/07/07 04:12:06;;;;;;;11.00;7.30;;;;;;;16.38;82.47;98639.59;4092411;28;20633;-91
2022/07/07 04:14:10;;;;;;;8.27;7.47;;;;;;;16.39;84.46;98642.09;4109035;28;21398;-91
2022/07/07 04:16:13;;;;;;;8.33;7.63;;;;;;;16.43;84.18;98647.94;4112053;28;20971;-91
2022/07/07 04:18:16;;;;;;;7.23;6.60;;;;;;;16.45;83.27;98659.16;4109437;28;21131;-90
2022/07/07 04:20:20;;;;;;;8.47;7.67;;;;;;;16.43;82.28;98661.94;4109458;28;20663;-91
2022/07/07 04:22:23;;;;;;;8.77;7.00;;;;;;;16.46;83.03;98660.84;4111082;28;20730;-90
2022/07/07 04:24:28;;;;;;;8.20;7.03;;;;;;;16.48;83.13;98645.75;4126394;28;21259;-91
2022/07/07 04:26:31;;;;;;;8.40;7.60;;;;;;;16.50;82.61;98640.22;4108631;28;20727;-91
2022/07/07 04:28:34;;;;;;;8.47;7.53;;;;;;;16.51;84.17;98636.63;4113714;28;20627;-90
2022/07/07 04:30:37;;;;;;;7.87;7.07;;;;;;;16.50;83.01;98624.41;4125992;28;20656;-90
2022/07/07 04:32:41;;;;;;;9.67;7.13;;;;;;;16.50;84.10;98622.78;4110205;28;20646;-91
2022/07/07 04:34:44;;;;;;;8.10;7.30;;;;;;;16.50;85.44;98636.75;4112661;28;20679;-91
2022/07/07 04:37:06;;;;;;;7.97;7.20;;;;;;;16.50;84.53;98643.84;4110713;28;20632;-91
2022/07/07 04:39:09;;;;;;;8.17;7.40;;;;;;;16.51;84.05;98641.91;4126493;28;20654;-91
2022/07/07 04:41:14;;;;;;;8.20;7.40;;;;;;;16.52;85.59;98633.06;4110952;28;20630;-91
2022/07/07 04:43:17;;;;;;;7.83;7.03;;;;;;;16.56;84.11;98628.34;4130217;28;20645;-90
2022/07/07 04:45:20;;;;;;;8.67;7.60;;;;;;;16.58;83.99;98629.91;4106001;28;20706;-91
2022/07/07 04:47:26;;;;;;;10.17;8.00;;;;;;;16.64;82.66;98625.91;4126486;28;20741;-91
2022/07/07 04:49:52;;;;;;;7.53;6.77;;;;;;;16.68;82.70;98632.59;4119693;28;20632;-91
2022/07/07 04:51:55;;;;;;;8.80;6.77;;;;;;;16.72;82.93;98624.31;4125264;28;20730;-91
2022/07/07 04:53:59;;;;;;;8.87;7.57;;;;;;;16.77;81.29;98622.13;4108160;28;21311;-92
2022/07/07 04:56:02;;;;;;;7.77;6.47;;;;;;;16.82;83.30;98621.72;4110077;28;20767;-90
2022/07/07 04:58:06;;;;;;;6.13;5.53;;;;;;;16.88;81.06;98619.41;4114357;28;20636;-91
2022/07/07 05:00:11;;;;;;;8.63;6.20;;;;;;;16.95;79.96;98619.72;4127086;28;20634;-91
2022/07/07 05:02:14;;;;;;;6.77;6.17;;;;;;;17.02;82.02;98621.72;4109658;28;21059;-91
2022/07/07 05:04:17;;;;;;;8.40;6.33;;;;;;;17.11;82.59;98621.75;4127175;28;20746;-91
2022/07/07 05:06:20;;;;;;;9.17;6.60;;;;;;;17.20;81.94;98614.84;4108828;28;20678;-91
2022/07/07 05:08:23;;;;;;;9.30;6.17;;;;;;;17.29;81.38;98620.19;4120661;28;20628;-91
2022/07/07 05:10:27;;;;;;;7.90;6.63;;;;;;;17.38;81.47;98626.47;4113032;28;20698;-91
2022/07/07 05:12:30;;;;;;;7.93;6.80;;;;;;;17.44;81.20;98620.66;4108550;28;20648;-90
2022/07/07 05:14:34;;;;;;;7.10;5.90;;;;;;;17.46;80.74;98625.66;4110542;28;21133;-91
2022/07/07 05:16:37;;;;;;;6.93;6.33;;;;;;;17.51;80.52;98628.75;4096529;29;20999;-92
2022/07/07 05:18:41;;;;;;;7.60;6.87;;;;;;;17.54;81.47;98625.81;4107383;28;20760;-88
2022/07/07 05:20:44;;;;;;;7.97;7.17;;;;;;;17.55;82.84;98629.31;4112885;28;21076;-92
2022/07/07 05:22:48;;;;;;;10.20;7.80;;;;;;;17.55;81.53;98634.59;4105649;28;20720;-91
2022/07/07 05:24:51;;;;;;;7.37;6.67;;;;;;;17.57;82.73;98630.00;4096114;28;20630;-90
2022/07/07 05:26:54;;;;;;;9.03;7.33;;;;;;;17.58;82.74;98629.03;4121322;28;21069;-91
2022/07/07 05:28:57;;;;;;;9.20;7.07;;;;;;;17.60;83.00;98635.00;4112035;28;20671;-92
2022/07/07 05:31:02;;;;;;;8.27;7.50;;;;;;;17.65;82.66;98638.91;4125169;28;21231;-91
2022/07/07 05:33:07;;;;;;;7.57;6.80;;;;;;;17.78;82.31;98628.94;4127571;28;20743;-91
2022/07/07 05:35:11;;;;;;;7.20;6.57;;;;;;;17.84;81.96;98632.84;4093455;28;20702;-91
2022/07/07 05:37:14;;;;;;;9.33;6.83;;;;;;;17.84;80.63;98625.75;4112193;28;20633;-90
2022/07/07 05:39:17;;;;;;;7.30;6.57;;;;;;;17.88;81.19;98634.25;4128759;28;20629;-92
2022/07/07 05:41:21;;;;;;;11.20;7.33;;;;;;;17.96;81.75;98637.88;4125302;28;20662;-91
2022/07/07 05:43:24;;;;;;;7.07;6.37;;;;;;;17.99;81.00;98633.13;4123616;28;20661;-92
2022/07/07 05:45:28;;;;;;;7.93;7.13;;;;;;;18.03;80.97;98623.16;4109113;28;20653;-91
2022/07/07 05:47:33;;;;;;;10.83;8.50;;;;;;;18.10;82.97;98616.34;4127442;28;21041;-92
2022/07/07 05:49:36;;;;;;;9.07;7.40;;;;;;;18.22;83.95;98612.63;4126637;28;20635;-92
2022/07/07 05:51:39;;;;;;;9.57;7.90;;;;;;;18.56;82.71;98615.53;4108073;28;20665;-91
2022/07/07 05:53:43;;;;;;;10.67;7.30;;;;;;;18.98;80.71;98620.31;4110760;28;20649;-90
2022/07/07 05:55:46;;;;;;;7.00;6.27;;;;;;;19.40;78.93;98613.66;4123199;28;20739;-91
2022/07/07 05:57:49;;;;;;;5.20;4.70;;;;;;;19.85;75.45;98624.13;4130725;28;20636;-90
2022/07/07 05:59:52;;;;;;;6.73;5.73;;;;;;;20.27;74.42;98619.97;4127197;28;20638;-91
2022/07/07 06:01:55;;;;;;;6.10;5.43;;;;;;;20.70;73.26;98626.13;4110110;28;21070;-92
2022/07/07 06:04:00;;;;;;;5.97;5.33;;;;;;;21.05;70.55;98637.53;4111530;28;20636;-91
2022/07/07 06:06:04;;;;;;;5.83;4.90;;;;;;;21.42;69.40;98638.06;4109139;28;21034;-90
2022/07/07 06:08:07;;;;;;;5.27;4.70;;;;;;;21.76;68.57;98645.88;4111806;28;20632;-91
2022/07/07 06:10:11;;;;;;;6.20;4.70;;;;;;;21.85;67.35;98636.94;4107768;28;20672;-92
2022/07/07 06:12:14;;;;;;;5.87;3.90;;;;;;;21.66;67.34;98628.41;4110864;28;20656;-92
2022/07/07 06:14:18;;;;;;;5.60;4.53;;;;;;;21.64;67.32;98627.75;4113542;28;20728;-91
2022/07/07 06:16:38;;;;;;;5.87;4.73;;;;;;;21.54;68.18;98626.19;4108174;28;20686;-91
2022/07/07 06:18:41;;;;;;;5.63;4.00;;;;;;;21.56;69.64;98627.72;4110824;28;20714;-89
2022/07/07 06:20:46;;;;;;;5.40;3.80;;;;;;;21.64;68.18;98626.94;4113152;28;20647;-91
2022/07/07 06:22:49;;;;;;;6.50;3.97;;;;;;;21.50;67.91;98631.00;4112644;28;20632;-90
2022/07/07 06:24:52;;;;;;;5.97;4.00;;;;;;;21.44;68.14;98620.13;4125513;28;20628;-90
2022/07/07 06:26:55;;;;;;;4.73;3.80;;;;;;;21.91;67.69;98627.53;4128000;28;20667;-90
2022/07/07 06:28:58;;;;;;;7.33;4.20;;;;;;;22.43;66.82;98633.31;4127076;28;20727;-91
2022/07/07 06:31:01;;;;;;;4.90;3.90;;;;;;;22.87;65.35;98632.81;4128144;28;21243;-89
2022/07/07 06:33:05;;;;;;;4.70;3.90;;;;;;;22.81;65.88;98624.66;4111085;28;21233;-91
2022/07/07 06:35:08;;;;;;;7.80;4.50;;;;;;;22.74;65.98;98624.47;4107713;28;20651;-90
2022/07/07 06:37:13;;;;;;;6.20;4.20;;;;;;;23.14;65.62;98626.28;4121419;28;21305;-91
2022/07/07 06:39:16;;;;;;;6.03;4.07;;;;;;;23.06;64.65;98618.34;4109183;28;20692;-91
2022/07/07 06:41:19;;;;;;;4.60;4.03;;;;;;;22.85;64.47;98613.53;4126833;28;20650;-90
2022/07/07 06:43:22;;;;;;;5.47;4.60;;;;;;;22.68;64.51;98616.34;4112251;28;21064;-91
2022/07/07 06:45:26;;;;;;;5.83;4.00;;;;;;;22.76;66.41;98616.34;4125678;28;20659;-91
2022/07/07 06:47:29;;;;;;;4.33;3.80;;;;;;;22.71;64.66;98616.00;4129029;28;20707;-91
2022/07/07 06:49:32;;;;;;;5.47;3.97;;;;;;;22.64;65.03;98619.50;4113762;28;21477;-91
2022/07/07 06:51:35;;;;;;;6.83;4.20;;;;;;;22.49;67.26;98611.38;4113126;28;20642;-90
2022/07/07 06:53:40;;;;;;;5.40;4.03;;;;;;;22.37;67.45;98612.69;4126444;28;20642;-90
2022/07/07 06:55:43;;;;;;;4.53;4.13;;;;;;;22.28;67.03;98608.34;4111537;28;20679;-91
2022/07/07 06:57:46;;;;;;;3.97;3.67;;;;;;;22.22;67.75;98604.69;4128484;28;22204;-91
2022/07/07 06:59:49;;;;;;;5.17;3.50;;;;;;;22.07;65.48;98609.78;4108850;28;20637;-92
2022/07/07 07:01:52;;;;;;;6.30;3.13;;;;;;;21.92;65.12;98605.25;4120349;28;20987;-92
2022/07/07 07:03:56;;;;;;;5.53;3.60;;;;;;;21.78;65.35;98608.53;4125257;28;21055;-92
2022/07/07 07:05:59;;;;;;;4.97;3.40;;;;;;;21.68;67.08;98602.53;4106040;28;20701;-93
2022/07/07 07:08:02;;;;;;;3.90;3.30;;;;;;;21.57;68.07;98609.94;4125155;28;20624;-92
2022/07/07 07:10:08;;;;;;;3.83;2.90;;;;;;;21.47;67.16;98604.78;4123959;28;21053;-92
2022/07/07 07:12:11;;;;;;;3.20;2.90;;;;;;;21.41;65.96;98607.22;4108729;28;21291;-93
2022/07/07 07:14:14;;;;;;;4.07;3.00;;;;;;;21.40;66.36;98600.22;4126712;28;21060;-93
2022/07/07 07:16:26;;;;;;;5.83;3.60;;;;;;;21.39;66.92;98602.06;4110732;28;20651;-91
2022/07/07 07:18:30;;;;;;;5.50;3.17;;;;;;;21.34;66.41;98598.22;4126515;28;20645;-91
2022/07/07 07:20:33;;;;;;;4.40;3.10;;;;;;;21.30;67.56;98608.31;4109906;28;20644;-91
2022/07/07 07:22:36;;;;;;;4.43;2.97;;;;;;;21.29;66.76;98603.16;4123586;28;20738;-91
2022/07/07 07:24:46;;;;;;;5.00;3.30;;;;;;;21.27;67.47;98608.63;4089334;28;20673;-91
2022/07/07 07:26:50;;;;;;;6.03;3.57;;;;;;;21.28;67.00;98612.94;4077892;29;20666;-91
2022/07/07 07:28:53;;;;;;;4.10;3.13;;;;;;;21.28;66.12;98615.59;4091436;29;20648;-91
2022/07/07 07:30:56;;;;;;;3.83;3.20;;;;;;;21.28;67.25;98615.59;4078149;29;20638;-90
2022/07/07 07:33:00;;;;;;;6.00;4.03;;;;;;;21.27;67.42;98613.94;4097495;28;21105;-90
2022/07/07 07:35:03;;;;;;;8.03;3.93;;;;;;;21.31;68.15;98612.63;4082627;29;20725;-90
2022/07/07 07:37:06;;;;;;;7.70;4.20;;;;;;;21.30;68.50;98613.63;4093342;29;20641;-89
2022/07/07 07:39:11;;;;;;;5.07;3.73;;;;;;;21.29;68.70;98617.25;4077941;29;20705;-91
2022/07/07 07:41:14;;;;;;;5.70;3.67;;;;;;;21.29;67.59;98613.78;4078486;29;20688;-90
2022/07/07 07:43:18;;;;;;;5.60;3.33;;;;;;;21.34;67.23;98609.66;4076622;29;20654;-88
2022/07/07 07:45:23;;;;;;;3.70;3.27;;;;;;;21.40;68.55;98619.63;4079099;29;20666;-91
2022/07/07 07:47:26;;;;;;;4.80;3.50;;;;;;;21.41;69.28;98625.78;4075947;29;20651;-91
2022/07/07 07:49:30;;;;;;;6.90;4.13;;;;;;;21.34;67.74;98624.75;4094254;28;20638;-90
2022/07/07 07:51:33;;;;;;;6.33;3.73;;;;;;;21.30;68.22;98620.75;4080030;29;20656;-91
2022/07/07 07:53:36;;;;;;;6.27;3.53;;;;;;;21.27;67.97;98628.19;4098580;28;20643;-91
2022/07/07 07:55:39;;;;;;;4.20;3.03;;;;;;;21.24;68.51;98626.69;4088291;28;20700;-91
2022/07/07 07:57:44;;;;;;;5.47;3.13;;;;;;;21.17;68.17;98625.66;4110796;28;20648;-91
2022/07/07 07:59:48;;;;;;;9.73;3.30;;;;;;;21.12;68.38;98629.75;4096256;28;20629;-90
2022/07/07 08:01:51;;;;;;;5.07;3.43;;;;;;;21.07;68.58;98626.75;4128910;28;21868;-90
2022/07/07 08:03:55;;;;;;;5.30;3.00;;;;;;;21.05;70.98;98618.94;4110992;28;20647;-90
2022/07/07 08:05:58;;;;;;;5.43;3.23;;;;;;;21.02;69.74;98613.13;4110205;28;20771;-91
2022/07/07 08:08:01;;;;;;;6.60;4.23;;;;;;;21.02;69.13;98618.44;4113541;28;20660;-91
2022/07/07 08:10:06;;;;;;;5.43;3.40;;;;;;;21.00;69.70;98612.44;4127587;28;20727;-91
2022/07/07 08:12:09;;;;;;;3.80;3.40;;;;;;;20.99;69.25;98611.63;4114284;28;20673;-91
2022/07/07 08:14:12;;;;;;;5.03;2.60;;;;;;;20.98;68.51;98609.94;4110364;28;21844;-91
2022/07/07 08:16:17;;;;;;;9.73;3.30;;;;;;;20.99;68.79;98608.13;4114816;28;20641;-91
2022/07/07 08:18:26;;;;;;;7.07;3.30;;;;;;;20.99;69.53;98602.84;4101611;28;20643;-90
2022/07/07 08:20:30;;;;;;;10.53;2.93;;;;;;;20.97;68.52;98604.78;4127538;28;20704;-90
2022/07/07 08:22:34;;;;;;;6.20;2.97;;;;;;;20.92;67.82;98602.59;4128521;28;20639;-91
2022/07/07 08:24:37;;;;;;;6.77;3.30;;;;;;;20.87;68.62;98604.91;4113122;28;20667;-89
2022/07/07 08:26:41;;;;;;;5.53;3.00;;;;;;;20.86;70.01;98607.72;4110528;28;20689;-89
2022/07/07 08:28:44;;;;;;;6.33;3.00;;;;;;;20.80;69.38;98606.50;4124777;28;21025;-92
2022/07/07 08:30:47;;;;;;;4.43;2.90;;;;;;;20.80;68.59;98606.50;4108020;28;20996;-92
2022/07/07 08:32:52;;;;;;;6.13;2.90;;;;;;;20.83;70.04;98602.72;4127251;28;20644;-92
2022/07/07 08:34:55;;;;;;;4.30;2.87;;;;;;;20.86;69.10;98600.56;4110534;28;21111;-91
2022/07/07 08:36:58;;;;;;;9.53;3.40;;;;;;;20.91;70.80;98600.09;4112653;28;20632;-90
2022/07/07 08:39:01;;;;;;;11.27;3.20;;;;;;;20.98;70.80;98601.16;4123939;28;21008;-90
2022/07/07 08:41:04;;;;;;;4.10;2.70;;;;;;;21.03;70.16;98601.50;4126121;28;21061;-90
2022/07/07 08:43:07;;;;;;;4.50;2.93;;;;;;;21.07;69.61;98597.56;4093918;28;20740;-89
2022/07/07 08:45:11;;;;;;;6.00;3.50;;;;;;;21.13;70.89;98599.59;4096139;28;20637;-91
2022/07/07 08:47:15;;;;;;;9.90;2.93;;;;;;;21.18;70.47;98592.81;4128075;28;20701;-91
2022/07/07 08:49:19;;;;;;;6.33;2.80;;;;;;;21.23;68.82;98590.53;4107374;28;20845;-92
2022/07/07 08:51:23;;;;;;;4.93;2.93;;;;;;;21.29;70.46;98588.06;4106352;28;20635;-91
2022/07/07 08:53:26;;;;;;;4.37;2.70;;;;;;;21.36;70.29;98588.25;4110442;28;20629;-91
2022/07/07 08:55:36;;;;;;;5.13;3.10;;;;;;;21.39;69.15;98596.75;4128147;28;20647;-91
2022/07/07 08:57:39;;;;;;;5.13;3.17;;;;;;;21.42;70.18;98601.75;4126751;28;20637;-88
2022/07/07 08:59:42;;;;;;;5.83;2.80;;;;;;;21.49;70.01;98601.97;4112385;28;20640;-92
2022/07/07 09:01:54;;;;;;;6.70;3.20;;;;;;;21.65;68.33;98599.34;4114164;28;20693;-92
2022/07/07 09:03:57;;;;;;;3.80;2.80;;;;;;;21.78;68.96;98597.91;4127108;28;20651;-88
2022/07/07 09:06:02;;;;;;;6.20;3.20;;;;;;;21.87;70.50;98599.59;4126814;28;20668;-88
2022/07/07 09:08:17;;;;;;;5.80;2.90;;;;;;;21.81;68.95;98598.44;4107688;28;20692;-89
2022/07/07 09:10:29;;;;;;;11.30;4.40;;;;;;;21.76;68.07;98609.72;4128130;28;20710;-89
2022/07/07 09:12:33;;;;;;;7.63;4.57;;;;;;;21.71;68.52;98609.34;4125847;28;20742;-89
2022/07/07 09:14:38;;;;;;;7.90;4.30;;;;;;;21.63;69.02;98615.44;4110341;28;20656;-89
2022/07/07 09:16:42;;;;;;;5.37;4.60;;;;;;;21.60;69.44;98614.94;4112505;28;20634;-90
2022/07/07 09:18:46;;;;;;;4.70;4.30;;;;;;;21.56;68.91;98622.41;4128336;28;20696;-89
2022/07/07 09:20:49;;;;;;;9.10;5.13;;;;;;;21.55;69.66;98617.25;4109388;28;20679;-88
2022/07/07 09:22:56;;;;;;;5.73;4.77;;;;;;;21.48;69.45;98625.00;4111300;28;20711;-88
2022/07/07 09:25:07;;;;;;;6.63;4.80;;;;;;;21.42;70.22;98614.16;4126126;28;20848;-89
2022/07/07 09:27:11;;;;;;;7.97;4.90;;;;;;;21.40;70.30;98618.81;4126657;28;20643;-88
2022/07/07 09:29:17;;;;;;;5.70;3.80;;;;;;;21.42;69.73;98607.06;4114052;28;20675;-89
2022/07/07 09:31:20;;;;;;;5.63;3.67;;;;;;;21.49;70.01;98604.63;4123321;28;20658;-88
2022/07/07 09:33:25;;;;;;;4.90;4.07;;;;;;;21.64;71.11;98605.69;4107554;28;20640;-88
2022/07/07 09:38:17;;;;;;;5.60;3.27;;;;;;;21.77;72.11;98614.84;4096528;28;20625;-89
2022/07/07 09:40:21;;;;;;;3.83;3.43;;;;;;;21.70;72.04;98616.47;4113245;28;20645;-88
2022/07/07 09:42:25;;;;;;;4.30;3.73;;;;;;;21.52;72.02;98618.41;4104454;28;20636;-88
2022/07/07 09:44:29;;;;;;;4.00;3.40;;;;;;;21.42;73.30;98614.16;4109398;28;20636;-89
2022/07/07 09:46:33;;;;;;;4.40;3.37;;;;;;;21.36;72.59;98618.31;4110405;28;21012;-89
2022/07/07 09:48:37;;;;;;;5.50;3.53;;;;;;;21.34;73.25;98622.91;4121762;28;20659;-89
2022/07/07 09:50:40;;;;;;;6.63;3.57;;;;;;;21.27;73.32;98624.56;4093689;28;20656;-89
2022/07/07 09:52:47;;;;;;;4.73;3.50;;;;;;;21.25;73.24;98624.88;4091526;28;20640;-88